Neilston, United Kingdom
Current Conditions -  °F | °C
As of 6:20 PM on Friday 31 Oct 2014 (Local Time) from EGPF Reporting Station
Broken Clouds Broken Clouds  
Wind Chill: 17°   Ceiling: 1800
Heat Index: 17°   Visibility: 6mi
Dew Point: 14°   Wind: 13mph
Humidity: 82%   Direction: 180°S
Pressure: 29.62"   Gusts: NA
Location:  55.79°N, 4.43°W
Report Text: EGPF 311820Z AUTO 18011KT 9999 BKN018/// //////CB 17/14 Q1003
Loading
Personal Weather Stations






























Interactive Weather Map
Tropical Storm Tracking
New forecast layout! Learn more

10-Day Weather Forecast

Advertisements
Track Severe Weather on mobile